Huetor-Tajar, Spain
Current Conditions -  °F | °C
As of 7:00 PM on Saturday 22 Nov 2014 (Local Time) from LEGR Reporting Station
Scattered Clouds Scattered Clouds  
Wind Chill: 73°   Ceiling: Unl
Heat Index: 73°   Visibility: 6mi
Dew Point: 36°   Wind: 24mph
Humidity: 25%   Direction: 160°SSE
Pressure: 29.8"   Gusts: 43mph
Location:  37.2°N, 4.05°W
Report Text: LEGR 221800Z 16021G37KT 120V180 9999 SCT035 23/02 Q1009
Loading
Personal Weather Stations






























Interactive Weather Map New forecast layout! Learn more

10-Day Weather Forecast

Advertisements
Track Severe Weather on mobile